Terminal Aerodrome Forecast
Issued by NWS

Home | Current Version | Previous Version | Text Only | Print | Product List | Glossary On
Versions: 1 2 3 4 5 6 7 8 9 10 11 12
551
FTUS43 KBIS 202339
TAFMOT
TAF
KMOT 202339Z 2100/2124 32008KT P6SM SCT080 BKN150
     FM210300 30005KT P6SM BKN200
     FM211800 VRB03KT P6SM SCT070 BKN100
     FM212100 17005KT P6SM SCT060 BKN080=

USA.gov is the U.S. government's official web portal to all federal, state and local government web resources and services.